createdAt,value
2018-02-10T00:00:50.963Z,57.48
2018-02-10T00:03:23.475Z,57.56
2018-02-10T00:05:55.988Z,57.58
2018-02-10T00:08:28.495Z,57.49
2018-02-10T00:11:01.008Z,57.52
2018-02-10T00:13:33.506Z,57.53
2018-02-10T00:16:06.007Z,57.47
2018-02-10T00:18:38.514Z,57.49
2018-02-10T00:21:11.270Z,57.49
2018-02-10T00:23:43.771Z,57.49
2018-02-10T00:26:16.268Z,57.52
2018-02-10T00:28:48.770Z,57.67
2018-02-10T00:31:21.390Z,57.66
2018-02-10T00:33:54.695Z,57.64
2018-02-10T00:36:27.346Z,57.57
2018-02-10T00:38:59.865Z,57.62
2018-02-10T00:41:32.937Z,57.54
2018-02-10T00:44:05.462Z,57.59
2018-02-10T00:46:37.981Z,57.55
2018-02-10T00:49:10.813Z,57.59
2018-02-10T00:51:43.402Z,57.54
2018-02-10T00:54:15.916Z,57.52
2018-02-10T00:56:48.432Z,57.44
2018-02-10T00:59:20.945Z,57.37
2018-02-10T01:01:53.475Z,57.31
2018-02-10T01:04:25.979Z,57.38
2018-02-10T01:06:58.483Z,57.35
2018-02-10T01:09:30.999Z,57.25
2018-02-10T01:12:03.511Z,57.31
2018-02-10T01:14:36.010Z,57.35
2018-02-10T01:17:08.512Z,57.37
2018-02-10T01:19:41.017Z,57.28
2018-02-10T01:22:13.526Z,57.28
2018-02-10T01:24:46.036Z,57.46
2018-02-10T01:27:18.538Z,57.42
2018-02-10T01:29:51.064Z,57.40
2018-02-10T01:32:23.559Z,57.38
2018-02-10T01:34:56.069Z,57.47
2018-02-10T01:37:28.638Z,57.43
2018-02-10T01:40:01.155Z,57.42
2018-02-10T01:42:33.708Z,57.36
2018-02-10T01:45:06.227Z,57.52
2018-02-10T01:47:38.739Z,57.27
2018-02-10T01:50:22.061Z,57.23
2018-02-10T01:52:54.567Z,57.24
2018-02-10T01:55:27.068Z,57.39
2018-02-10T01:57:59.567Z,57.42
2018-02-10T02:00:32.068Z,57.46
2018-02-10T02:03:04.582Z,57.49
2018-02-10T02:05:37.111Z,57.42
2018-02-10T02:08:09.616Z,57.37
2018-02-10T02:10:42.112Z,57.40
2018-02-10T02:13:14.618Z,57.26
2018-02-10T02:15:47.117Z,57.24
2018-02-10T02:18:19.654Z,57.28
2018-02-10T02:20:52.152Z,57.26
2018-02-10T02:23:24.688Z,57.33
2018-02-10T02:25:57.187Z,57.42
2018-02-10T02:28:29.678Z,57.43
2018-02-10T02:31:02.183Z,57.37
2018-02-10T02:33:34.688Z,57.29
2018-02-10T02:36:07.208Z,57.39
2018-02-10T02:38:39.720Z,57.33
2018-02-10T02:41:12.285Z,57.46
2018-02-10T02:43:44.759Z,57.27
2018-02-10T02:46:17.266Z,57.20
2018-02-10T02:48:50.895Z,57.26
2018-02-10T02:51:23.452Z,57.35
2018-02-10T02:53:55.974Z,57.34
2018-02-10T02:56:28.477Z,57.21
2018-02-10T02:59:01.009Z,57.14
2018-02-10T03:01:33.526Z,57.19
2018-02-10T03:04:06.036Z,57.34
2018-02-10T03:06:38.549Z,57.26
2018-02-10T03:09:11.056Z,57.10
2018-02-10T03:11:43.598Z,57.10
2018-02-10T03:14:16.111Z,57.27
2018-02-10T03:16:50.736Z,57.21
2018-02-10T03:19:23.221Z,57.11
2018-02-10T03:21:55.750Z,57.16
2018-02-10T03:24:28.257Z,57.32
2018-02-10T03:27:00.766Z,57.32
2018-02-10T03:29:33.276Z,57.14
2018-02-10T03:32:05.786Z,57.07
2018-02-10T03:34:38.294Z,57.17
2018-02-10T03:37:10.801Z,56.92
2018-02-10T03:39:43.320Z,56.97
2018-02-10T03:42:15.837Z,57.12
2018-02-10T03:44:48.342Z,57.22
2018-02-10T03:47:20.837Z,57.22
2018-02-10T03:49:53.341Z,57.19
2018-02-10T03:52:25.863Z,57.25
2018-02-10T03:54:58.400Z,57.21
2018-02-10T03:57:30.891Z,57.24
2018-02-10T04:00:03.464Z,57.21
2018-02-10T04:02:35.972Z,57.02
2018-02-10T04:05:08.471Z,56.80
2018-02-10T04:07:40.980Z,56.95
2018-02-10T04:10:13.494Z,56.99
2018-02-10T04:12:46.009Z,56.93
2018-02-10T04:15:18.566Z,56.91
2018-02-10T04:17:51.048Z,56.93
2018-02-10T04:20:23.535Z,56.92
2018-02-10T04:22:56.033Z,56.74
2018-02-10T04:25:28.536Z,56.80
2018-02-10T04:28:01.735Z,56.51
2018-02-10T04:30:34.232Z,56.77
2018-02-10T04:33:06.746Z,56.81
2018-02-10T04:35:39.255Z,56.56
2018-02-10T04:38:11.765Z,56.64
2018-02-10T04:40:44.279Z,56.85
2018-02-10T04:43:16.774Z,56.80
2018-02-10T04:45:49.274Z,56.68
2018-02-10T04:48:21.970Z,56.71
2018-02-10T04:50:54.456Z,56.76
2018-02-10T04:53:27.007Z,56.41
2018-02-10T04:55:59.515Z,56.43
2018-02-10T04:58:32.068Z,56.44
2018-02-10T05:01:04.576Z,56.49
2018-02-10T05:03:37.108Z,56.49
2018-02-10T05:06:09.622Z,56.59
2018-02-10T05:08:42.142Z,56.55
2018-02-10T05:11:14.976Z,56.44
2018-02-10T05:13:47.531Z,56.55
2018-02-10T05:16:20.039Z,56.61
2018-02-10T05:18:52.538Z,56.50
2018-02-10T05:21:25.048Z,56.64
2018-02-10T05:23:57.550Z,56.67
2018-02-10T05:26:30.052Z,56.63
2018-02-10T05:29:02.668Z,56.60
2018-02-10T05:31:35.174Z,56.46
2018-02-10T05:34:21.414Z,56.45
2018-02-10T05:36:59.947Z,56.46
2018-02-10T05:39:32.712Z,56.37
2018-02-10T05:42:05.238Z,56.26
2018-02-10T05:44:37.780Z,56.42
2018-02-10T05:47:10.281Z,56.44
2018-02-10T05:49:42.857Z,56.33
2018-02-10T05:52:15.388Z,56.36
2018-02-10T05:54:47.972Z,56.43
2018-02-10T05:57:20.471Z,56.38
2018-02-10T05:59:53.002Z,56.31
2018-02-10T06:02:25.515Z,56.33
2018-02-10T06:04:58.013Z,56.04
2018-02-10T06:07:30.515Z,56.55
2018-02-10T06:10:03.093Z,56.43
2018-02-10T06:12:35.623Z,56.43
2018-02-10T06:15:08.131Z,56.46
2018-02-10T06:17:40.677Z,56.44
2018-02-10T06:20:13.174Z,56.35
2018-02-10T06:22:45.680Z,56.33
2018-02-10T06:25:18.189Z,56.37
2018-02-10T06:27:50.769Z,56.31
2018-02-10T06:30:23.271Z,56.45
2018-02-10T06:32:55.756Z,56.41
2018-02-10T06:35:28.261Z,56.27
2018-02-10T06:38:00.756Z,56.36
2018-02-10T06:40:34.229Z,56.40
2018-02-10T06:43:06.751Z,56.39
2018-02-10T06:45:39.255Z,56.37
2018-02-10T06:48:11.772Z,56.31
2018-02-10T06:50:44.343Z,56.26
2018-02-10T06:53:16.854Z,55.89
2018-02-10T06:55:49.359Z,56.05
2018-02-10T06:58:21.852Z,56.37
2018-02-10T07:00:54.366Z,56.31
2018-02-10T07:03:26.870Z,56.29
2018-02-10T07:05:59.408Z,56.38
2018-02-10T07:08:31.917Z,56.35
2018-02-10T07:11:04.427Z,56.35
2018-02-10T07:13:36.940Z,56.29
2018-02-10T07:16:09.449Z,56.17
2018-02-10T07:18:41.969Z,56.09
2018-02-10T07:21:14.475Z,56.08
2018-02-10T07:23:46.995Z,56.20
2018-02-10T07:26:19.528Z,56.23
2018-02-10T07:28:52.100Z,56.29
2018-02-10T07:31:24.611Z,56.24
2018-02-10T07:33:57.134Z,56.24
2018-02-10T07:36:29.643Z,56.28
2018-02-10T07:39:02.154Z,56.28
2018-02-10T07:41:34.670Z,56.21
2018-02-10T07:44:07.172Z,56.20
2018-02-10T07:46:39.664Z,56.18
2018-02-10T07:49:12.158Z,56.12
2018-02-10T07:51:44.664Z,55.95
2018-02-10T07:54:17.180Z,56.06
2018-02-10T07:56:50.122Z,55.97
2018-02-10T07:59:22.680Z,56.04
2018-02-10T08:01:55.187Z,55.99
2018-02-10T08:04:27.693Z,55.96
2018-02-10T08:07:00.202Z,55.85
2018-02-10T08:09:32.727Z,55.42
2018-02-10T08:12:05.268Z,55.42
2018-02-10T08:14:37.774Z,55.67
2018-02-10T08:17:10.292Z,56.17
2018-02-10T08:19:42.813Z,56.28
2018-02-10T08:22:15.330Z,55.89
2018-02-10T08:24:47.850Z,55.67
2018-02-10T08:27:20.352Z,55.51
2018-02-10T08:29:52.890Z,55.79
2018-02-10T08:32:25.389Z,55.70
2018-02-10T08:34:57.936Z,54.89
2018-02-10T08:37:30.435Z,54.71
2018-02-10T08:40:02.939Z,54.77
2018-02-10T08:42:35.431Z,55.04
2018-02-10T08:45:07.958Z,55.01
2018-02-10T08:47:40.455Z,55.31
2018-02-10T08:50:12.980Z,55.61
2018-02-10T08:52:45.548Z,55.90
2018-02-10T08:55:18.113Z,56.20
2018-02-10T08:57:50.577Z,55.56
2018-02-10T09:00:23.109Z,55.57
2018-02-10T09:02:55.621Z,55.89
2018-02-10T09:05:28.141Z,56.13
2018-02-10T09:08:00.648Z,55.83
2018-02-10T09:10:33.180Z,55.56
2018-02-10T09:13:06.524Z,55.66
2018-02-10T09:15:39.045Z,55.50
2018-02-10T09:18:11.547Z,55.38
2018-02-10T09:20:44.083Z,55.41
2018-02-10T09:23:16.585Z,55.26
2018-02-10T09:25:49.113Z,55.30
2018-02-10T09:28:21.627Z,55.34
2018-02-10T09:30:54.203Z,55.46
2018-02-10T09:33:26.778Z,55.79
2018-02-10T09:35:59.312Z,55.94
2018-02-10T09:38:31.861Z,55.89
2018-02-10T09:41:04.392Z,55.80
2018-02-10T09:43:36.895Z,55.58
2018-02-10T09:46:10.435Z,55.62
2018-02-10T09:48:42.934Z,56.09
2018-02-10T09:51:15.478Z,56.45
2018-02-10T09:53:47.984Z,56.63
2018-02-10T09:56:20.518Z,56.84
2018-02-10T09:58:53.034Z,57.32
2018-02-10T10:01:25.555Z,57.31
2018-02-10T10:03:58.047Z,57.29
2018-02-10T10:06:30.575Z,57.56
2018-02-10T10:09:03.075Z,57.69
2018-02-10T10:11:35.612Z,57.71
2018-02-10T10:14:08.118Z,57.92
2018-02-10T10:16:40.635Z,57.63
2018-02-10T10:19:13.137Z,57.59
2018-02-10T10:21:45.656Z,57.79
2018-02-10T10:24:18.191Z,57.83
2018-02-10T10:26:50.753Z,57.75
2018-02-10T10:29:23.260Z,57.84
2018-02-10T10:31:55.777Z,57.88
2018-02-10T10:34:28.287Z,57.85
2018-02-10T10:37:00.820Z,58.04
2018-02-10T10:39:33.395Z,57.77
2018-02-10T10:42:05.862Z,57.78
2018-02-10T10:44:38.355Z,58.01
2018-02-10T10:47:10.873Z,57.30
2018-02-10T10:49:43.371Z,57.14
2018-02-10T10:52:15.888Z,57.08
2018-02-10T10:54:48.386Z,56.78
2018-02-10T10:57:20.939Z,57.26
2018-02-10T10:59:53.470Z,56.41
2018-02-10T11:02:26.000Z,56.82
2018-02-10T11:04:58.502Z,56.15
2018-02-10T11:07:31.020Z,56.06
2018-02-10T11:10:03.655Z,55.60
2018-02-10T11:12:36.174Z,55.54
2018-02-10T11:15:08.675Z,56.07
2018-02-10T11:17:41.199Z,55.70
2018-02-10T11:20:13.690Z,55.13
2018-02-10T11:22:46.229Z,55.11
2018-02-10T11:25:19.753Z,54.79
2018-02-10T11:27:52.285Z,53.64
2018-02-10T11:30:24.792Z,53.31
2018-02-10T11:32:57.346Z,52.78
2018-02-10T11:35:29.890Z,51.40
2018-02-10T11:38:02.436Z,50.20
2018-02-10T11:40:34.967Z,49.25
2018-02-10T11:43:07.495Z,50.00
2018-02-10T11:45:40.008Z,49.33
2018-02-10T11:48:12.520Z,47.37
2018-02-10T11:50:45.094Z,50.98
2018-02-10T11:53:17.621Z,49.61
2018-02-10T11:55:50.150Z,49.95
2018-02-10T11:58:22.778Z,51.58
2018-02-10T12:00:55.319Z,51.01
2018-02-10T12:03:27.832Z,50.62
2018-02-10T12:06:00.364Z,48.41
2018-02-10T12:08:32.867Z,50.25
2018-02-10T12:11:05.384Z,49.68
2018-02-10T12:13:37.881Z,51.59
2018-02-10T12:16:10.560Z,51.61
2018-02-10T12:18:43.058Z,50.97
2018-02-10T12:21:15.654Z,50.53
2018-02-10T12:23:48.163Z,51.35
2018-02-10T12:26:20.702Z,50.46
2018-02-10T12:28:53.213Z,51.06
2018-02-10T12:31:25.754Z,51.13
2018-02-10T12:33:58.260Z,51.26
2018-02-10T12:36:30.806Z,52.08
2018-02-10T12:39:03.322Z,50.94
2018-02-10T12:41:35.840Z,52.08
2018-02-10T12:44:08.346Z,51.84
2018-02-10T12:46:40.881Z,51.40
2018-02-10T12:52:12.172Z,52.29
2018-02-10T12:54:44.666Z,52.24
2018-02-10T12:57:17.195Z,51.79
2018-02-10T12:59:49.727Z,52.09
2018-02-10T13:02:22.258Z,52.41
2018-02-10T13:04:54.766Z,52.51
2018-02-10T13:07:27.287Z,52.39
2018-02-10T13:09:59.800Z,52.92
2018-02-10T13:12:32.344Z,51.64
2018-02-10T13:15:04.846Z,51.80
2018-02-10T13:17:37.398Z,51.74
2018-02-10T13:20:09.894Z,52.22
2018-02-10T13:22:42.430Z,52.45
2018-02-10T13:25:14.959Z,50.42
2018-02-10T13:27:47.487Z,50.08
2018-02-10T13:30:20.104Z,52.66
2018-02-10T13:32:52.629Z,52.24
2018-02-10T13:35:25.172Z,51.50
2018-02-10T13:37:57.744Z,51.81
2018-02-10T13:40:30.257Z,52.11
2018-02-10T13:43:02.810Z,52.41
2018-02-10T13:45:35.352Z,50.69
2018-02-10T13:48:07.907Z,52.02
2018-02-10T13:50:40.422Z,52.40
2018-02-10T13:53:12.956Z,52.48
2018-02-10T13:55:45.464Z,52.13
2018-02-10T13:58:18.001Z,52.38
2018-02-10T14:00:50.559Z,51.98
2018-02-10T14:03:23.076Z,53.70
2018-02-10T14:05:55.574Z,53.38
2018-02-10T14:08:28.113Z,53.52
2018-02-10T14:11:00.634Z,53.02
2018-02-10T14:13:33.158Z,53.92
2018-02-10T14:16:05.998Z,53.89
2018-02-10T14:18:38.562Z,53.61
2018-02-10T14:21:11.080Z,53.45
2018-02-10T15:45:45.709Z,57.62
2018-02-10T15:48:18.260Z,58.17
2018-02-10T15:50:50.763Z,58.68
2018-02-10T15:53:23.291Z,58.57
2018-02-10T15:55:55.792Z,59.11
2018-02-10T15:58:28.335Z,59.56
2018-02-10T16:01:00.838Z,59.88
2018-02-10T16:03:33.359Z,60.20
2018-02-10T16:06:05.862Z,59.59
2018-02-10T16:08:38.390Z,59.66
2018-02-10T16:11:10.892Z,60.26
2018-02-10T16:13:43.432Z,59.41
2018-02-10T16:16:16.005Z,59.62
2018-02-10T16:18:48.533Z,59.49
2018-02-10T16:21:21.026Z,58.94
2018-02-10T16:23:53.561Z,59.06
2018-02-10T16:26:26.065Z,59.95
2018-02-10T16:28:58.600Z,59.86
2018-02-10T16:31:31.181Z,59.88
2018-02-10T16:34:03.708Z,59.67
2018-02-10T16:36:36.213Z,59.76
2018-02-10T16:39:08.822Z,59.37
2018-02-10T16:41:41.332Z,59.43
2018-02-10T16:44:13.923Z,59.54
2018-02-10T16:46:46.501Z,59.55
2018-02-10T16:49:19.053Z,59.93
2018-02-10T16:51:51.566Z,60.97
2018-02-10T16:54:24.089Z,60.38
2018-02-10T16:56:56.595Z,60.09
2018-02-10T16:59:29.119Z,60.39
2018-02-10T17:02:01.633Z,60.30
2018-02-10T17:04:34.174Z,59.81
2018-02-10T17:07:06.683Z,60.18
2018-02-10T17:09:39.223Z,59.55
2018-02-10T17:12:11.731Z,59.68
2018-02-10T17:14:44.269Z,60.19
2018-02-10T17:17:16.773Z,61.04
2018-02-10T17:19:49.309Z,61.81
2018-02-10T17:22:21.832Z,60.62
2018-02-10T17:24:54.362Z,60.43
2018-02-10T17:27:26.869Z,60.15
2018-02-10T17:29:59.396Z,60.21
2018-02-10T17:32:31.904Z,60.06
2018-02-10T17:35:04.437Z,59.67
2018-02-10T17:37:36.935Z,60.05
2018-02-10T17:40:09.456Z,60.49
2018-02-10T17:42:41.958Z,60.20
2018-02-10T17:45:14.490Z,59.95
2018-02-10T17:47:46.988Z,59.69
2018-02-10T17:50:19.524Z,59.76
2018-02-10T17:52:52.056Z,59.95
2018-02-10T17:55:24.584Z,59.76
2018-02-10T17:57:57.119Z,59.78
2018-02-10T18:00:29.612Z,60.42
2018-02-10T18:03:02.137Z,60.77
2018-02-10T18:05:34.642Z,60.80
2018-02-10T18:08:07.171Z,61.29
2018-02-10T18:10:39.710Z,60.61
2018-02-10T18:13:12.239Z,60.84
2018-02-10T18:15:46.167Z,60.73
2018-02-10T18:18:18.725Z,60.30
2018-02-10T18:20:51.225Z,59.83
2018-02-10T18:23:23.748Z,60.67
2018-02-10T18:25:56.249Z,60.36
2018-02-10T18:28:28.777Z,59.92
2018-02-10T18:31:01.287Z,59.79
2018-02-10T18:33:33.812Z,59.61
2018-02-10T18:36:06.327Z,59.30
2018-02-10T18:38:38.855Z,59.29
2018-02-10T18:41:11.356Z,59.13
2018-02-10T18:43:43.881Z,59.16
2018-02-10T18:46:16.388Z,59.33
2018-02-10T18:48:48.927Z,59.38
2018-02-10T18:51:21.445Z,59.49
2018-02-10T18:53:53.987Z,59.16
2018-02-10T18:56:26.496Z,59.53
2018-02-10T18:58:59.032Z,59.38
2018-02-10T19:01:31.545Z,59.93
2018-02-10T19:04:04.074Z,59.82
2018-02-10T19:06:36.595Z,60.05
2018-02-10T19:09:09.109Z,60.28
2018-02-10T19:11:41.616Z,59.89
2018-02-10T19:14:14.131Z,59.60
2018-02-10T19:16:46.625Z,59.80
2018-02-10T19:19:19.145Z,59.33
2018-02-10T19:21:51.683Z,59.81
2018-02-10T19:24:24.238Z,59.86
2018-02-10T19:26:56.739Z,59.63
2018-02-10T19:29:29.251Z,60.01
2018-02-10T19:32:01.768Z,59.78
2018-02-10T19:34:34.307Z,59.69
2018-02-10T19:37:06.815Z,59.51
2018-02-10T19:39:39.862Z,59.48
2018-02-10T19:42:12.901Z,59.52
2018-02-10T19:44:45.516Z,59.40
2018-02-10T19:47:18.011Z,59.82
2018-02-10T19:49:50.581Z,59.53
2018-02-10T19:52:23.097Z,59.50
2018-02-10T19:54:55.666Z,59.37
2018-02-10T19:57:28.261Z,59.34
2018-02-10T20:00:00.811Z,59.33
2018-02-10T20:02:33.345Z,59.17
2018-02-10T20:05:06.477Z,59.29
2018-02-10T20:07:38.992Z,59.29
2018-02-10T20:10:11.512Z,59.28
2018-02-10T20:12:44.011Z,59.39
2018-02-10T20:15:16.534Z,59.69
2018-02-10T20:17:49.112Z,60.28
2018-02-10T20:20:21.637Z,60.23
2018-02-10T20:22:54.249Z,59.85
2018-02-10T20:25:26.832Z,59.50
2018-02-10T20:27:59.331Z,59.38
2018-02-10T20:30:31.858Z,59.55
2018-02-10T20:33:04.471Z,60.24
2018-02-10T20:35:37.330Z,60.06
2018-02-10T20:38:10.032Z,59.87
2018-02-10T20:40:42.838Z,60.05
2018-02-10T20:43:15.380Z,60.48
2018-02-10T20:45:48.013Z,60.17
2018-02-10T20:48:20.564Z,60.05
2018-02-10T20:50:53.393Z,59.87
2018-02-10T20:53:25.976Z,59.78
2018-02-10T20:55:58.822Z,60.13
2018-02-10T20:58:31.445Z,60.60
2018-02-10T21:01:04.084Z,60.15
2018-02-10T21:03:36.712Z,60.46
2018-02-10T21:06:09.362Z,60.21
2018-02-10T21:08:42.542Z,60.06
2018-02-10T21:11:15.256Z,59.38
2018-02-10T21:13:48.915Z,60.55
2018-02-10T21:16:21.682Z,60.43
2018-02-10T21:18:54.325Z,60.19
2018-02-10T21:21:27.014Z,60.14
2018-02-10T21:23:59.721Z,60.25
2018-02-10T21:26:32.383Z,60.28
2018-02-10T21:29:06.038Z,60.34
2018-02-10T21:31:38.819Z,60.06
2018-02-10T21:34:11.424Z,60.58
2018-02-10T21:36:44.263Z,60.30
2018-02-10T21:39:17.214Z,60.04
2018-02-10T21:41:49.896Z,59.88
2018-02-10T21:44:22.639Z,59.80
2018-02-10T21:46:55.491Z,59.64
2018-02-10T21:49:28.191Z,60.17
2018-02-10T21:52:00.778Z,59.96
2018-02-10T21:54:33.654Z,59.77
2018-02-10T21:57:06.286Z,59.78
2018-02-10T21:59:39.562Z,59.80
2018-02-10T22:02:12.627Z,59.86
2018-02-10T22:04:46.473Z,59.95
2018-02-10T22:07:19.364Z,60.00
2018-02-10T22:09:52.311Z,60.42
2018-02-10T22:12:27.702Z,60.03
2018-02-10T22:15:02.286Z,60.49
2018-02-10T22:17:35.876Z,60.06
2018-02-10T22:20:08.746Z,60.81
2018-02-10T22:22:41.750Z,60.71
2018-02-10T22:25:14.748Z,60.77
2018-02-10T22:27:49.729Z,60.40
2018-02-10T22:30:22.899Z,60.36
2018-02-10T22:32:56.229Z,60.12
2018-02-10T22:35:29.375Z,61.07
2018-02-10T22:38:02.363Z,60.94
2018-02-10T22:40:35.273Z,60.56
2018-02-10T22:43:08.235Z,60.49
2018-02-10T22:45:42.271Z,60.05
2018-02-10T22:48:15.213Z,60.14
2018-02-10T22:50:48.172Z,60.34
2018-02-10T22:53:21.320Z,60.28
2018-02-10T22:55:54.376Z,60.76
2018-02-10T22:58:27.288Z,61.17
2018-02-10T23:01:05.660Z,60.87
2018-02-10T23:03:38.512Z,60.66
2018-02-10T23:06:11.348Z,61.28
2018-02-10T23:08:43.937Z,61.13
2018-02-10T23:11:17.045Z,61.10
2018-02-10T23:13:49.975Z,60.77
2018-02-10T23:16:22.965Z,60.95
2018-02-10T23:18:56.758Z,60.81
2018-02-10T23:21:33.826Z,62.00
2018-02-10T23:24:06.628Z,61.17
2018-02-10T23:26:40.100Z,60.86
2018-02-10T23:29:13.200Z,60.50
2018-02-10T23:31:46.262Z,60.40
2018-02-10T23:34:19.162Z,60.31
2018-02-10T23:36:52.093Z,59.73
2018-02-10T23:39:24.802Z,60.82
2018-02-10T23:41:57.705Z,60.54
2018-02-10T23:44:30.734Z,60.42
2018-02-10T23:47:04.550Z,60.27
2018-02-10T23:49:37.544Z,59.99
2018-02-10T23:52:10.621Z,59.82
2018-02-10T23:54:43.385Z,59.62
2018-02-10T23:57:17.144Z,59.67
2018-02-10T23:59:50.010Z,59.50
